Lester B. Pearson International Airport
CYYZ : now visible

Airfield :











YOU CAN JOIN US ON...

 
LOGIN :

Register | Disclaimer

   EN    FR    IT 

 









Legend :    VFR   Marginal VFR   IFR   Intensive IFR   Very Intensive IFR
Visi :
Ceiling :
>= 8 km
>= 3000ft
5 to 8 km
1000 to 3000 ft
1500m to 5 km
500 to 1000 ft
800 to 1500m
200 to 500 ft
< 800m
< 200 ft
Symbols :   Thunderstorms  Fog  Heavy snow  Heavy precipitations  Wind > 20 kt






- Airport Elevation : 569 ft
- IATA code : YYZ


CYYZ - Lester B. Pearson International

CURRENT METAR :
  • 120300Z 27014G21KT 15SM FEW040 M07/M14 A3046 RMK SC1 SC TR SLP327

EXPIRED METARs :
  • 120200Z 28014G21KT 15SM FEW040 M07/M14 A3044 RMK SC1 SLP322
  • 120100Z 28011G16KT 15SM FEW025 M08/M14 A3042 RMK CF1 CF TR SLP313

TAF TAF CYYZ
Valid from the 12 at 03:00 until the 13 at 06:00 UTC


120238Z 1203/1306 28012G22KT P6SM FEW040
BECMG 1204/1206 27010KT
FM121200 23006KT P6SM BKN100
FM121700 17010KT P6SM BKN025 OVC080
FM122200 18012KT P6SM SCT025 BKN200
BECMG 1300/1302 22008KT RMK NXT FCST BY 120600Z



MET'MAP, your aeronautical weather chart ! - Copyright ORBIFLY December 2007 - Disclaimer

ORBIFLY MET'MAP TEAM :

Programming & Development : Alexandra Zaïnal
Concept & original design : Baudouin d'Aumeries
Assistance for programming : Marc-Olivier Méhu
Technical & hardware support : Manuel Goepfert

Contact : metmap@orbifly.com




SOURCES & CREDITS :

   NOAA       Earth
Advisory